sensor_id;sensor_type;location;lat;lon;timestamp;P1;durP1;ratioP1;P2;durP2;ratioP2
24435;SDS011;12616;52.470;13.436;2022-11-24T00:01:22;103.68;;;44.85;;
24435;SDS011;12616;52.470;13.436;2022-11-24T00:03:56;108.07;;;44.95;;
24435;SDS011;12616;52.470;13.436;2022-11-24T00:06:26;84.72;;;42.55;;
24435;SDS011;12616;52.470;13.436;2022-11-24T00:08:54;89.25;;;41.70;;
24435;SDS011;12616;52.470;13.436;2022-11-24T00:11:23;92.88;;;44.10;;
24435;SDS011;12616;52.470;13.436;2022-11-24T00:13:52;99.15;;;44.17;;
24435;SDS011;12616;52.470;13.436;2022-11-24T00:16:21;92.38;;;41.50;;
24435;SDS011;12616;52.470;13.436;2022-11-24T00:18:53;79.90;;;41.55;;
24435;SDS011;12616;52.470;13.436;2022-11-24T00:21:21;98.20;;;43.60;;
24435;SDS011;12616;52.470;13.436;2022-11-24T00:30:40;102.68;;;45.88;;
24435;SDS011;12616;52.470;13.436;2022-11-24T00:33:28;109.15;;;45.22;;
24435;SDS011;12616;52.470;13.436;2022-11-24T00:46:11;85.10;;;45.65;;
24435;SDS011;12616;52.470;13.436;2022-11-24T00:48:53;97.30;;;46.10;;
24435;SDS011;12616;52.470;13.436;2022-11-24T00:51:47;96.72;;;45.28;;
24435;SDS011;12616;52.470;13.436;2022-11-24T00:54:35;115.25;;;44.08;;
24435;SDS011;12616;52.470;13.436;2022-11-24T00:57:10;109.72;;;48.25;;
24435;SDS011;12616;52.470;13.436;2022-11-24T01:00:04;102.72;;;46.13;;
24435;SDS011;12616;52.470;13.436;2022-11-24T01:06:41;110.38;;;45.97;;
24435;SDS011;12616;52.470;13.436;2022-11-24T01:09:27;118.72;;;45.33;;
24435;SDS011;12616;52.470;13.436;2022-11-24T01:16:11;111.93;;;44.65;;
24435;SDS011;12616;52.470;13.436;2022-11-24T01:19:18;108.18;;;46.40;;
24435;SDS011;12616;52.470;13.436;2022-11-24T01:22:08;117.35;;;48.58;;
24435;SDS011;12616;52.470;13.436;2022-11-24T01:24:55;125.82;;;46.90;;
24435;SDS011;12616;52.470;13.436;2022-11-24T01:27:31;103.75;;;43.67;;
24435;SDS011;12616;52.470;13.436;2022-11-24T01:33:52;123.68;;;47.38;;
24435;SDS011;12616;52.470;13.436;2022-11-24T01:36:50;94.97;;;45.65;;
24435;SDS011;12616;52.470;13.436;2022-11-24T01:42:38;119.63;;;47.78;;
24435;SDS011;12616;52.470;13.436;2022-11-24T01:45:32;104.20;;;44.33;;
24435;SDS011;12616;52.470;13.436;2022-11-24T01:48:13;121.70;;;44.00;;
24435;SDS011;12616;52.470;13.436;2022-11-24T01:50:50;111.55;;;46.65;;
24435;SDS011;12616;52.470;13.436;2022-11-24T01:53:22;113.50;;;47.67;;
24435;SDS011;12616;52.470;13.436;2022-11-24T01:55:53;116.65;;;44.20;;
24435;SDS011;12616;52.470;13.436;2022-11-24T01:58:27;124.30;;;46.67;;
24435;SDS011;12616;52.470;13.436;2022-11-24T02:01:01;112.15;;;47.90;;
24435;SDS011;12616;52.470;13.436;2022-11-24T02:03:31;103.50;;;46.42;;
24435;SDS011;12616;52.470;13.436;2022-11-24T02:06:07;117.75;;;46.45;;
24435;SDS011;12616;52.470;13.436;2022-11-24T02:08:41;104.20;;;45.97;;
24435;SDS011;12616;52.470;13.436;2022-11-24T02:11:12;106.35;;;44.15;;
24435;SDS011;12616;52.470;13.436;2022-11-24T02:13:40;119.22;;;47.35;;
24435;SDS011;12616;52.470;13.436;2022-11-24T02:16:10;117.85;;;46.20;;
24435;SDS011;12616;52.470;13.436;2022-11-24T02:18:43;119.28;;;45.75;;
24435;SDS011;12616;52.470;13.436;2022-11-24T02:21:16;102.43;;;47.72;;
24435;SDS011;12616;52.470;13.436;2022-11-24T02:23:50;121.03;;;43.58;;
24435;SDS011;12616;52.470;13.436;2022-11-24T02:26:39;127.20;;;47.20;;
24435;SDS011;12616;52.470;13.436;2022-11-24T02:29:12;135.45;;;45.15;;
24435;SDS011;12616;52.470;13.436;2022-11-24T02:31:45;107.13;;;46.95;;
24435;SDS011;12616;52.470;13.436;2022-11-24T02:34:20;124.40;;;45.35;;
24435;SDS011;12616;52.470;13.436;2022-11-24T02:36:52;111.25;;;42.65;;
24435;SDS011;12616;52.470;13.436;2022-11-24T02:39:23;109.55;;;46.38;;
24435;SDS011;12616;52.470;13.436;2022-11-24T02:41:58;110.53;;;46.28;;
24435;SDS011;12616;52.470;13.436;2022-11-24T02:44:34;104.70;;;44.28;;
24435;SDS011;12616;52.470;13.436;2022-11-24T02:47:11;104.47;;;46.08;;
24435;SDS011;12616;52.470;13.436;2022-11-24T02:49:43;107.95;;;44.05;;
24435;SDS011;12616;52.470;13.436;2022-11-24T02:52:15;115.28;;;46.90;;
24435;SDS011;12616;52.470;13.436;2022-11-24T02:54:47;128.50;;;45.88;;
24435;SDS011;12616;52.470;13.436;2022-11-24T02:57:22;119.18;;;45.25;;
24435;SDS011;12616;52.470;13.436;2022-11-24T02:59:54;144.95;;;49.22;;
24435;SDS011;12616;52.470;13.436;2022-11-24T03:02:26;131.68;;;44.13;;
24435;SDS011;12616;52.470;13.436;2022-11-24T03:04:57;108.95;;;43.30;;
24435;SDS011;12616;52.470;13.436;2022-11-24T03:07:28;125.22;;;43.97;;
24435;SDS011;12616;52.470;13.436;2022-11-24T03:10:00;128.18;;;44.05;;
24435;SDS011;12616;52.470;13.436;2022-11-24T03:12:35;114.05;;;42.78;;
24435;SDS011;12616;52.470;13.436;2022-11-24T03:15:08;107.47;;;44.70;;
24435;SDS011;12616;52.470;13.436;2022-11-24T03:17:40;95.90;;;41.22;;
24435;SDS011;12616;52.470;13.436;2022-11-24T03:20:19;105.55;;;45.80;;
24435;SDS011;12616;52.470;13.436;2022-11-24T03:28:30;107.30;;;43.35;;
24435;SDS011;12616;52.470;13.436;2022-11-24T03:30:06;119.13;;;42.13;;
24435;SDS011;12616;52.470;13.436;2022-11-24T03:35:40;109.72;;;42.97;;
24435;SDS011;12616;52.470;13.436;2022-11-24T03:42:05;102.90;;;41.75;;
24435;SDS011;12616;52.470;13.436;2022-11-24T03:45:02;101.85;;;40.45;;
24435;SDS011;12616;52.470;13.436;2022-11-24T03:47:54;103.53;;;41.05;;
24435;SDS011;12616;52.470;13.436;2022-11-24T03:51:02;105.25;;;43.15;;
24435;SDS011;12616;52.470;13.436;2022-11-24T03:58:00;113.07;;;42.45;;
24435;SDS011;12616;52.470;13.436;2022-11-24T04:07:05;95.13;;;40.22;;
24435;SDS011;12616;52.470;13.436;2022-11-24T04:09:35;88.85;;;39.38;;
24435;SDS011;12616;52.470;13.436;2022-11-24T04:12:14;109.95;;;41.92;;
24435;SDS011;12616;52.470;13.436;2022-11-24T04:20:28;95.65;;;39.38;;
24435;SDS011;12616;52.470;13.436;2022-11-24T04:22:07;88.43;;;36.10;;
24435;SDS011;12616;52.470;13.436;2022-11-24T04:35:40;88.15;;;39.10;;
24435;SDS011;12616;52.470;13.436;2022-11-24T04:38:12;98.10;;;36.33;;
24435;SDS011;12616;52.470;13.436;2022-11-24T04:40:46;106.38;;;39.42;;
24435;SDS011;12616;52.470;13.436;2022-11-24T04:43:17;90.05;;;37.42;;
24435;SDS011;12616;52.470;13.436;2022-11-24T04:45:45;97.97;;;38.60;;
24435;SDS011;12616;52.470;13.436;2022-11-24T04:48:14;97.28;;;39.10;;
24435;SDS011;12616;52.470;13.436;2022-11-24T04:50:47;85.55;;;35.72;;
24435;SDS011;12616;52.470;13.436;2022-11-24T04:53:19;103.82;;;38.35;;
24435;SDS011;12616;52.470;13.436;2022-11-24T05:00:16;86.47;;;36.53;;
24435;SDS011;12616;52.470;13.436;2022-11-24T05:10:15;82.72;;;36.13;;
24435;SDS011;12616;52.470;13.436;2022-11-24T05:13:20;89.38;;;35.75;;
24435;SDS011;12616;52.470;13.436;2022-11-24T05:16:27;70.90;;;32.40;;
24435;SDS011;12616;52.470;13.436;2022-11-24T05:22:38;86.45;;;36.65;;
24435;SDS011;12616;52.470;13.436;2022-11-24T05:25:30;71.82;;;34.42;;
24435;SDS011;12616;52.470;13.436;2022-11-24T05:31:07;103.95;;;43.90;;
24435;SDS011;12616;52.470;13.436;2022-11-24T05:39:43;79.32;;;34.33;;
24435;SDS011;12616;52.470;13.436;2022-11-24T05:42:24;74.65;;;31.75;;
24435;SDS011;12616;52.470;13.436;2022-11-24T05:45:32;73.32;;;31.00;;
24435;SDS011;12616;52.470;13.436;2022-11-24T05:48:28;71.05;;;35.25;;
24435;SDS011;12616;52.470;13.436;2022-11-24T05:51:23;81.30;;;36.00;;
24435;SDS011;12616;52.470;13.436;2022-11-24T06:00:24;80.88;;;34.28;;
24435;SDS011;12616;52.470;13.436;2022-11-24T06:02:51;79.13;;;34.90;;
24435;SDS011;12616;52.470;13.436;2022-11-24T06:05:25;66.57;;;32.83;;
24435;SDS011;12616;52.470;13.436;2022-11-24T06:11:28;68.20;;;32.78;;
24435;SDS011;12616;52.470;13.436;2022-11-24T06:14:10;76.57;;;33.97;;
24435;SDS011;12616;52.470;13.436;2022-11-24T06:17:43;70.82;;;30.70;;
24435;SDS011;12616;52.470;13.436;2022-11-24T06:20:50;62.47;;;30.00;;
24435;SDS011;12616;52.470;13.436;2022-11-24T06:23:54;67.15;;;30.15;;
24435;SDS011;12616;52.470;13.436;2022-11-24T06:26:44;56.90;;;28.40;;
24435;SDS011;12616;52.470;13.436;2022-11-24T06:29:28;67.22;;;30.33;;
24435;SDS011;12616;52.470;13.436;2022-11-24T06:31:54;63.70;;;28.50;;
24435;SDS011;12616;52.470;13.436;2022-11-24T06:34:21;65.22;;;30.83;;
24435;SDS011;12616;52.470;13.436;2022-11-24T06:36:48;81.50;;;34.67;;
24435;SDS011;12616;52.470;13.436;2022-11-24T06:39:16;67.25;;;29.50;;
24435;SDS011;12616;52.470;13.436;2022-11-24T06:41:43;69.80;;;31.42;;
24435;SDS011;12616;52.470;13.436;2022-11-24T06:44:10;71.85;;;30.70;;
24435;SDS011;12616;52.470;13.436;2022-11-24T06:46:37;59.65;;;29.63;;
24435;SDS011;12616;52.470;13.436;2022-11-24T06:49:04;79.57;;;32.70;;
24435;SDS011;12616;52.470;13.436;2022-11-24T06:51:31;63.58;;;30.10;;
24435;SDS011;12616;52.470;13.436;2022-11-24T06:53:57;77.35;;;31.70;;
24435;SDS011;12616;52.470;13.436;2022-11-24T06:56:27;69.32;;;30.58;;
24435;SDS011;12616;52.470;13.436;2022-11-24T06:58:53;77.43;;;34.47;;
24435;SDS011;12616;52.470;13.436;2022-11-24T07:01:21;71.32;;;32.35;;
24435;SDS011;12616;52.470;13.436;2022-11-24T07:03:49;72.88;;;30.75;;
24435;SDS011;12616;52.470;13.436;2022-11-24T07:06:17;74.50;;;36.05;;
24435;SDS011;12616;52.470;13.436;2022-11-24T07:08:44;75.88;;;30.10;;
24435;SDS011;12616;52.470;13.436;2022-11-24T07:11:12;81.63;;;32.50;;
24435;SDS011;12616;52.470;13.436;2022-11-24T07:13:43;72.05;;;29.77;;
24435;SDS011;12616;52.470;13.436;2022-11-24T07:16:13;70.28;;;29.60;;
24435;SDS011;12616;52.470;13.436;2022-11-24T07:18:41;75.80;;;31.70;;
24435;SDS011;12616;52.470;13.436;2022-11-24T07:21:08;90.43;;;31.92;;
24435;SDS011;12616;52.470;13.436;2022-11-24T07:23:36;75.10;;;34.30;;
24435;SDS011;12616;52.470;13.436;2022-11-24T07:26:03;61.55;;;28.52;;
24435;SDS011;12616;52.470;13.436;2022-11-24T07:28:31;66.10;;;31.27;;
24435;SDS011;12616;52.470;13.436;2022-11-24T07:30:59;68.13;;;31.35;;
24435;SDS011;12616;52.470;13.436;2022-11-24T07:33:30;61.08;;;29.92;;
24435;SDS011;12616;52.470;13.436;2022-11-24T07:35:58;76.95;;;31.20;;
24435;SDS011;12616;52.470;13.436;2022-11-24T07:38:25;53.95;;;26.67;;
24435;SDS011;12616;52.470;13.436;2022-11-24T07:40:52;68.18;;;28.77;;
24435;SDS011;12616;52.470;13.436;2022-11-24T07:43:19;66.93;;;36.03;;
24435;SDS011;12616;52.470;13.436;2022-11-24T07:45:49;70.30;;;35.38;;
24435;SDS011;12616;52.470;13.436;2022-11-24T07:48:18;55.20;;;28.67;;
24435;SDS011;12616;52.470;13.436;2022-11-24T07:50:45;56.45;;;29.13;;
24435;SDS011;12616;52.470;13.436;2022-11-24T07:53:12;61.15;;;36.25;;
24435;SDS011;12616;52.470;13.436;2022-11-24T07:55:38;63.78;;;30.92;;
24435;SDS011;12616;52.470;13.436;2022-11-24T07:58:05;58.28;;;30.58;;
24435;SDS011;12616;52.470;13.436;2022-11-24T08:00:32;53.35;;;27.38;;
24435;SDS011;12616;52.470;13.436;2022-11-24T08:02:59;58.97;;;27.42;;
24435;SDS011;12616;52.470;13.436;2022-11-24T08:05:29;56.85;;;29.50;;
24435;SDS011;12616;52.470;13.436;2022-11-24T08:07:58;62.92;;;27.65;;
24435;SDS011;12616;52.470;13.436;2022-11-24T08:14:11;50.65;;;28.13;;
24435;SDS011;12616;52.470;13.436;2022-11-24T09:01:44;54.95;;;29.55;;
24435;SDS011;12616;52.470;13.436;2022-11-24T09:14:06;51.20;;;26.80;;
24435;SDS011;12616;52.470;13.436;2022-11-24T09:16:33;54.13;;;26.52;;
24435;SDS011;12616;52.470;13.436;2022-11-24T09:19:02;44.45;;;24.48;;
24435;SDS011;12616;52.470;13.436;2022-11-24T09:21:30;51.10;;;26.08;;
24435;SDS011;12616;52.470;13.436;2022-11-24T09:24:02;48.15;;;27.73;;
24435;SDS011;12616;52.470;13.436;2022-11-24T09:26:30;52.95;;;26.95;;
24435;SDS011;12616;52.470;13.436;2022-11-24T09:28:59;46.65;;;27.80;;
24435;SDS011;12616;52.470;13.436;2022-11-24T09:31:27;53.58;;;26.00;;
24435;SDS011;12616;52.470;13.436;2022-11-24T09:33:57;47.03;;;26.13;;
24435;SDS011;12616;52.470;13.436;2022-11-24T09:36:26;49.15;;;25.95;;
24435;SDS011;12616;52.470;13.436;2022-11-24T09:38:55;58.90;;;29.33;;
24435;SDS011;12616;52.470;13.436;2022-11-24T09:41:25;52.50;;;27.60;;
24435;SDS011;12616;52.470;13.436;2022-11-24T09:44:16;54.08;;;25.67;;
24435;SDS011;12616;52.470;13.436;2022-11-24T09:47:05;52.17;;;28.17;;
24435;SDS011;12616;52.470;13.436;2022-11-24T09:49:44;53.22;;;29.90;;
24435;SDS011;12616;52.470;13.436;2022-11-24T09:52:17;50.25;;;27.65;;
24435;SDS011;12616;52.470;13.436;2022-11-24T09:54:52;46.33;;;26.55;;
24435;SDS011;12616;52.470;13.436;2022-11-24T09:57:24;49.33;;;26.38;;
24435;SDS011;12616;52.470;13.436;2022-11-24T10:00:10;48.78;;;27.90;;
24435;SDS011;12616;52.470;13.436;2022-11-24T10:02:38;54.80;;;26.75;;
24435;SDS011;12616;52.470;13.436;2022-11-24T10:05:06;42.50;;;24.70;;
24435;SDS011;12616;52.470;13.436;2022-11-24T10:07:41;43.55;;;24.83;;
24435;SDS011;12616;52.470;13.436;2022-11-24T10:10:15;49.17;;;28.25;;
24435;SDS011;12616;52.470;13.436;2022-11-24T10:12:58;44.30;;;25.50;;
24435;SDS011;12616;52.470;13.436;2022-11-24T10:16:02;48.15;;;25.33;;
24435;SDS011;12616;52.470;13.436;2022-11-24T10:18:39;47.15;;;27.48;;
24435;SDS011;12616;52.470;13.436;2022-11-24T10:21:25;46.95;;;28.13;;
24435;SDS011;12616;52.470;13.436;2022-11-24T10:24:15;42.65;;;25.15;;
24435;SDS011;12616;52.470;13.436;2022-11-24T10:27:09;42.50;;;24.30;;
24435;SDS011;12616;52.470;13.436;2022-11-24T10:29:42;42.85;;;28.05;;
24435;SDS011;12616;52.470;13.436;2022-11-24T10:32:11;45.95;;;26.42;;
24435;SDS011;12616;52.470;13.436;2022-11-24T10:34:42;43.50;;;26.27;;
24435;SDS011;12616;52.470;13.436;2022-11-24T10:37:12;45.42;;;25.80;;
24435;SDS011;12616;52.470;13.436;2022-11-24T10:39:45;38.47;;;24.95;;
24435;SDS011;12616;52.470;13.436;2022-11-24T10:42:18;45.95;;;25.35;;
24435;SDS011;12616;52.470;13.436;2022-11-24T10:44:57;41.08;;;25.30;;
24435;SDS011;12616;52.470;13.436;2022-11-24T10:47:24;44.70;;;25.40;;
24435;SDS011;12616;52.470;13.436;2022-11-24T10:49:53;41.85;;;24.48;;
24435;SDS011;12616;52.470;13.436;2022-11-24T10:52:23;43.33;;;23.52;;
24435;SDS011;12616;52.470;13.436;2022-11-24T10:54:56;38.92;;;24.25;;
24435;SDS011;12616;52.470;13.436;2022-11-24T10:57:28;44.17;;;24.92;;
24435;SDS011;12616;52.470;13.436;2022-11-24T10:59:59;35.88;;;23.50;;
24435;SDS011;12616;52.470;13.436;2022-11-24T11:02:29;34.22;;;22.45;;
24435;SDS011;12616;52.470;13.436;2022-11-24T11:04:57;36.92;;;23.88;;
24435;SDS011;12616;52.470;13.436;2022-11-24T11:07:47;36.47;;;22.80;;
24435;SDS011;12616;52.470;13.436;2022-11-24T11:10:19;44.50;;;25.85;;
24435;SDS011;12616;52.470;13.436;2022-11-24T11:12:49;35.30;;;23.48;;
24435;SDS011;12616;52.470;13.436;2022-11-24T11:15:20;40.25;;;24.77;;
24435;SDS011;12616;52.470;13.436;2022-11-24T11:17:49;36.85;;;23.83;;
24435;SDS011;12616;52.470;13.436;2022-11-24T11:20:23;36.55;;;23.00;;
24435;SDS011;12616;52.470;13.436;2022-11-24T11:22:53;42.40;;;25.13;;
24435;SDS011;12616;52.470;13.436;2022-11-24T11:25:26;41.97;;;26.02;;
24435;SDS011;12616;52.470;13.436;2022-11-24T11:28:14;40.13;;;25.65;;
24435;SDS011;12616;52.470;13.436;2022-11-24T11:30:57;34.88;;;24.05;;
24435;SDS011;12616;52.470;13.436;2022-11-24T11:33:26;43.00;;;25.55;;
24435;SDS011;12616;52.470;13.436;2022-11-24T11:35:55;41.50;;;24.80;;
24435;SDS011;12616;52.470;13.436;2022-11-24T11:38:25;38.65;;;24.60;;
24435;SDS011;12616;52.470;13.436;2022-11-24T11:40:58;40.83;;;24.05;;
24435;SDS011;12616;52.470;13.436;2022-11-24T11:43:28;38.30;;;23.45;;
24435;SDS011;12616;52.470;13.436;2022-11-24T11:46:00;38.88;;;22.58;;
24435;SDS011;12616;52.470;13.436;2022-11-24T11:48:31;33.60;;;23.08;;
24435;SDS011;12616;52.470;13.436;2022-11-24T11:51:01;33.72;;;23.45;;
24435;SDS011;12616;52.470;13.436;2022-11-24T11:53:32;40.13;;;23.45;;
24435;SDS011;12616;52.470;13.436;2022-11-24T11:56:18;39.88;;;23.00;;
24435;SDS011;12616;52.470;13.436;2022-11-24T11:59:01;38.05;;;23.10;;
24435;SDS011;12616;52.470;13.436;2022-11-24T12:01:49;39.92;;;23.48;;
24435;SDS011;12616;52.470;13.436;2022-11-24T12:04:59;34.42;;;23.77;;
24435;SDS011;12616;52.470;13.436;2022-11-24T12:08:15;35.65;;;22.58;;
24435;SDS011;12616;52.470;13.436;2022-11-24T12:11:16;38.53;;;24.27;;
24435;SDS011;12616;52.470;13.436;2022-11-24T12:14:49;38.67;;;23.15;;
24435;SDS011;12616;52.470;13.436;2022-11-24T12:17:51;34.60;;;22.83;;
24435;SDS011;12616;52.470;13.436;2022-11-24T12:21:01;42.35;;;22.92;;
24435;SDS011;12616;52.470;13.436;2022-11-24T12:27:23;37.25;;;22.52;;
24435;SDS011;12616;52.470;13.436;2022-11-24T12:30:16;48.05;;;22.55;;
24435;SDS011;12616;52.470;13.436;2022-11-24T12:36:25;41.63;;;23.98;;
24435;SDS011;12616;52.470;13.436;2022-11-24T12:39:19;34.55;;;22.70;;
24435;SDS011;12616;52.470;13.436;2022-11-24T12:49:00;37.55;;;22.85;;
24435;SDS011;12616;52.470;13.436;2022-11-24T12:51:53;30.17;;;22.10;;
24435;SDS011;12616;52.470;13.436;2022-11-24T13:00:15;38.58;;;24.33;;
24435;SDS011;12616;52.470;13.436;2022-11-24T13:03:45;32.83;;;21.92;;
24435;SDS011;12616;52.470;13.436;2022-11-24T13:33:52;37.28;;;24.80;;
24435;SDS011;12616;52.470;13.436;2022-11-24T13:55:18;39.90;;;25.38;;
24435;SDS011;12616;52.470;13.436;2022-11-24T13:57:58;39.15;;;26.13;;
24435;SDS011;12616;52.470;13.436;2022-11-24T14:00:55;38.80;;;25.75;;
24435;SDS011;12616;52.470;13.436;2022-11-24T14:03:29;42.10;;;25.75;;
24435;SDS011;12616;52.470;13.436;2022-11-24T14:05:58;41.22;;;26.67;;
24435;SDS011;12616;52.470;13.436;2022-11-24T14:08:29;38.42;;;24.73;;
24435;SDS011;12616;52.470;13.436;2022-11-24T14:10:59;48.40;;;27.40;;
24435;SDS011;12616;52.470;13.436;2022-11-24T14:13:27;43.33;;;26.35;;
24435;SDS011;12616;52.470;13.436;2022-11-24T14:16:02;37.42;;;22.92;;
24435;SDS011;12616;52.470;13.436;2022-11-24T14:18:31;40.03;;;26.10;;
24435;SDS011;12616;52.470;13.436;2022-11-24T14:21:14;37.20;;;25.15;;
24435;SDS011;12616;52.470;13.436;2022-11-24T14:23:48;41.75;;;24.55;;
24435;SDS011;12616;52.470;13.436;2022-11-24T14:26:18;34.65;;;24.48;;
24435;SDS011;12616;52.470;13.436;2022-11-24T14:28:50;36.00;;;23.95;;
24435;SDS011;12616;52.470;13.436;2022-11-24T14:31:27;35.90;;;24.17;;
24435;SDS011;12616;52.470;13.436;2022-11-24T14:34:06;37.22;;;25.90;;
24435;SDS011;12616;52.470;13.436;2022-11-24T14:36:45;36.88;;;25.10;;
24435;SDS011;12616;52.470;13.436;2022-11-24T14:39:14;36.03;;;23.13;;
24435;SDS011;12616;52.470;13.436;2022-11-24T14:41:49;30.52;;;21.10;;
24435;SDS011;12616;52.470;13.436;2022-11-24T14:44:24;46.60;;;27.25;;
24435;SDS011;12616;52.470;13.436;2022-11-24T14:47:00;43.28;;;27.38;;
24435;SDS011;12616;52.470;13.436;2022-11-24T14:49:28;48.20;;;26.77;;
24435;SDS011;12616;52.470;13.436;2022-11-24T14:51:56;50.63;;;30.25;;
24435;SDS011;12616;52.470;13.436;2022-11-24T14:54:47;45.30;;;29.52;;
24435;SDS011;12616;52.470;13.436;2022-11-24T14:57:34;47.58;;;30.05;;
24435;SDS011;12616;52.470;13.436;2022-11-24T15:06:46;47.35;;;27.73;;
24435;SDS011;12616;52.470;13.436;2022-11-24T15:09:18;55.25;;;29.63;;
24435;SDS011;12616;52.470;13.436;2022-11-24T15:14:46;50.25;;;30.92;;
24435;SDS011;12616;52.470;13.436;2022-11-24T15:17:20;42.60;;;28.02;;
24435;SDS011;12616;52.470;13.436;2022-11-24T15:23:11;48.65;;;29.52;;
24435;SDS011;12616;52.470;13.436;2022-11-24T15:25:47;46.30;;;27.25;;
24435;SDS011;12616;52.470;13.436;2022-11-24T15:28:15;47.58;;;27.02;;
24435;SDS011;12616;52.470;13.436;2022-11-24T15:33:41;50.85;;;28.83;;
24435;SDS011;12616;52.470;13.436;2022-11-24T15:39:12;59.25;;;30.25;;
24435;SDS011;12616;52.470;13.436;2022-11-24T15:41:39;44.33;;;27.70;;
24435;SDS011;12616;52.470;13.436;2022-11-24T15:44:13;50.35;;;30.33;;
24435;SDS011;12616;52.470;13.436;2022-11-24T15:46:41;49.95;;;29.40;;
24435;SDS011;12616;52.470;13.436;2022-11-24T15:52:12;61.33;;;33.85;;
24435;SDS011;12616;52.470;13.436;2022-11-24T15:58:20;49.42;;;29.95;;
24435;SDS011;12616;52.470;13.436;2022-11-24T16:00:48;52.90;;;29.77;;
24435;SDS011;12616;52.470;13.436;2022-11-24T16:06:44;53.55;;;31.48;;
24435;SDS011;12616;52.470;13.436;2022-11-24T16:09:22;58.47;;;34.00;;
24435;SDS011;12616;52.470;13.436;2022-11-24T16:11:59;59.47;;;33.30;;
24435;SDS011;12616;52.470;13.436;2022-11-24T16:14:27;55.65;;;31.05;;
24435;SDS011;12616;52.470;13.436;2022-11-24T16:17:09;49.72;;;30.25;;
24435;SDS011;12616;52.470;13.436;2022-11-24T16:19:36;54.35;;;30.58;;
24435;SDS011;12616;52.470;13.436;2022-11-24T16:22:03;51.83;;;30.23;;
24435;SDS011;12616;52.470;13.436;2022-11-24T16:24:32;52.22;;;30.05;;
24435;SDS011;12616;52.470;13.436;2022-11-24T16:26:59;53.42;;;29.98;;
24435;SDS011;12616;52.470;13.436;2022-11-24T16:29:26;56.92;;;32.08;;
24435;SDS011;12616;52.470;13.436;2022-11-24T16:39:23;61.40;;;31.40;;
24435;SDS011;12616;52.470;13.436;2022-11-24T16:41:51;59.40;;;31.35;;
24435;SDS011;12616;52.470;13.436;2022-11-24T16:44:18;52.22;;;33.30;;
24435;SDS011;12616;52.470;13.436;2022-11-24T16:46:45;53.95;;;31.95;;
24435;SDS011;12616;52.470;13.436;2022-11-24T16:49:14;58.58;;;31.98;;
24435;SDS011;12616;52.470;13.436;2022-11-24T16:54:47;57.63;;;32.10;;
24435;SDS011;12616;52.470;13.436;2022-11-24T17:00:22;55.88;;;31.98;;
24435;SDS011;12616;52.470;13.436;2022-11-24T17:02:52;50.88;;;29.50;;
24435;SDS011;12616;52.470;13.436;2022-11-24T17:08:23;65.00;;;32.58;;
24435;SDS011;12616;52.470;13.436;2022-11-24T17:11:05;58.63;;;33.80;;
24435;SDS011;12616;52.470;13.436;2022-11-24T17:13:32;53.15;;;29.52;;
24435;SDS011;12616;52.470;13.436;2022-11-24T17:16:08;48.65;;;28.25;;
24435;SDS011;12616;52.470;13.436;2022-11-24T17:18:46;44.60;;;29.15;;
24435;SDS011;12616;52.470;13.436;2022-11-24T17:21:15;45.72;;;27.77;;
24435;SDS011;12616;52.470;13.436;2022-11-24T17:23:51;51.60;;;27.30;;
24435;SDS011;12616;52.470;13.436;2022-11-24T17:26:19;46.75;;;29.90;;
24435;SDS011;12616;52.470;13.436;2022-11-24T17:28:47;47.25;;;29.33;;
24435;SDS011;12616;52.470;13.436;2022-11-24T17:31:15;51.35;;;28.98;;
24435;SDS011;12616;52.470;13.436;2022-11-24T17:33:46;45.80;;;27.45;;
24435;SDS011;12616;52.470;13.436;2022-11-24T17:36:14;46.00;;;28.27;;
24435;SDS011;12616;52.470;13.436;2022-11-24T17:38:43;52.13;;;30.25;;
24435;SDS011;12616;52.470;13.436;2022-11-24T17:41:29;51.40;;;30.67;;
24435;SDS011;12616;52.470;13.436;2022-11-24T17:43:56;48.17;;;28.33;;
24435;SDS011;12616;52.470;13.436;2022-11-24T17:46:44;42.83;;;27.45;;
24435;SDS011;12616;52.470;13.436;2022-11-24T17:49:16;44.38;;;26.00;;
24435;SDS011;12616;52.470;13.436;2022-11-24T17:54:51;100.80;;;50.45;;
24435;SDS011;12616;52.470;13.436;2022-11-24T17:57:29;41.90;;;23.70;;
24435;SDS011;12616;52.470;13.436;2022-11-24T18:00:33;46.03;;;26.65;;
24435;SDS011;12616;52.470;13.436;2022-11-24T18:03:09;42.03;;;26.33;;
24435;SDS011;12616;52.470;13.436;2022-11-24T18:05:37;52.80;;;27.98;;
24435;SDS011;12616;52.470;13.436;2022-11-24T18:08:05;53.38;;;32.50;;
24435;SDS011;12616;52.470;13.436;2022-11-24T18:10:32;56.83;;;32.63;;
24435;SDS011;12616;52.470;13.436;2022-11-24T18:16:16;47.63;;;28.67;;
24435;SDS011;12616;52.470;13.436;2022-11-24T18:18:52;51.13;;;30.42;;
24435;SDS011;12616;52.470;13.436;2022-11-24T18:21:20;48.17;;;30.00;;
24435;SDS011;12616;52.470;13.436;2022-11-24T18:23:50;47.40;;;29.73;;
24435;SDS011;12616;52.470;13.436;2022-11-24T18:26:17;58.00;;;29.73;;
24435;SDS011;12616;52.470;13.436;2022-11-24T18:28:45;46.03;;;27.27;;
24435;SDS011;12616;52.470;13.436;2022-11-24T18:31:13;52.70;;;28.08;;
24435;SDS011;12616;52.470;13.436;2022-11-24T18:33:43;48.30;;;27.45;;
24435;SDS011;12616;52.470;13.436;2022-11-24T18:36:11;45.83;;;28.25;;
24435;SDS011;12616;52.470;13.436;2022-11-24T18:38:42;44.90;;;27.38;;
24435;SDS011;12616;52.470;13.436;2022-11-24T18:41:09;41.53;;;25.52;;
24435;SDS011;12616;52.470;13.436;2022-11-24T18:43:38;40.50;;;26.10;;
24435;SDS011;12616;52.470;13.436;2022-11-24T18:46:05;44.83;;;25.48;;
24435;SDS011;12616;52.470;13.436;2022-11-24T18:48:34;38.15;;;23.30;;
24435;SDS011;12616;52.470;13.436;2022-11-24T18:51:01;41.03;;;25.40;;
24435;SDS011;12616;52.470;13.436;2022-11-24T18:53:29;49.35;;;27.38;;
24435;SDS011;12616;52.470;13.436;2022-11-24T18:55:56;43.20;;;25.30;;
24435;SDS011;12616;52.470;13.436;2022-11-24T18:58:24;40.03;;;25.35;;
24435;SDS011;12616;52.470;13.436;2022-11-24T19:00:53;40.90;;;24.20;;
24435;SDS011;12616;52.470;13.436;2022-11-24T19:03:20;42.13;;;24.88;;
24435;SDS011;12616;52.470;13.436;2022-11-24T19:05:48;43.45;;;28.15;;
24435;SDS011;12616;52.470;13.436;2022-11-24T19:08:15;47.63;;;26.38;;
24435;SDS011;12616;52.470;13.436;2022-11-24T19:10:42;44.47;;;24.67;;
24435;SDS011;12616;52.470;13.436;2022-11-24T19:13:09;45.75;;;25.42;;
24435;SDS011;12616;52.470;13.436;2022-11-24T19:15:37;43.67;;;26.55;;
24435;SDS011;12616;52.470;13.436;2022-11-24T19:18:04;46.13;;;29.45;;
24435;SDS011;12616;52.470;13.436;2022-11-24T19:20:32;44.13;;;28.25;;
24435;SDS011;12616;52.470;13.436;2022-11-24T19:23:01;44.83;;;29.02;;
24435;SDS011;12616;52.470;13.436;2022-11-24T19:25:28;42.78;;;24.83;;
24435;SDS011;12616;52.470;13.436;2022-11-24T19:27:54;36.65;;;24.95;;
24435;SDS011;12616;52.470;13.436;2022-11-24T19:30:24;40.30;;;26.67;;
24435;SDS011;12616;52.470;13.436;2022-11-24T19:32:53;51.10;;;29.45;;